createdAt,value
2022-12-24T00:00:40.381Z,92.00
2022-12-24T00:03:07.308Z,92.00
2022-12-24T00:05:34.163Z,92.00
2022-12-24T00:08:00.844Z,92.00
2022-12-24T00:10:27.646Z,92.00
2022-12-24T00:12:54.353Z,92.00
2022-12-24T00:15:21.125Z,92.00
2022-12-24T00:17:47.813Z,91.90
2022-12-24T00:20:14.538Z,91.90
2022-12-24T00:22:41.339Z,91.90
2022-12-24T00:25:08.498Z,91.90
2022-12-24T00:27:35.265Z,91.90
2022-12-24T00:30:02.008Z,91.90
2022-12-24T00:32:28.988Z,91.90
2022-12-24T00:34:55.800Z,91.90
2022-12-24T00:37:22.546Z,91.90
2022-12-24T00:39:49.300Z,91.90
2022-12-24T00:42:16.087Z,91.90
2022-12-24T00:44:42.845Z,91.90
2022-12-24T00:47:12.099Z,91.80
2022-12-24T00:49:39.326Z,91.90
2022-12-24T00:52:06.028Z,91.90
2022-12-24T00:54:32.818Z,91.90
2022-12-24T00:56:59.635Z,91.90
2022-12-24T00:59:26.711Z,91.90
2022-12-24T01:01:53.539Z,91.80
2022-12-24T01:04:38.750Z,91.80
2022-12-24T01:07:05.559Z,91.80
2022-12-24T01:09:32.315Z,91.80
2022-12-24T01:11:59.070Z,91.80
2022-12-24T01:14:25.829Z,91.80
2022-12-24T01:16:52.645Z,91.80
2022-12-24T01:19:19.324Z,91.80
2022-12-24T01:21:46.069Z,91.80
2022-12-24T01:24:16.668Z,91.70
2022-12-24T01:26:44.047Z,91.70
2022-12-24T01:29:10.849Z,91.70
2022-12-24T01:31:37.886Z,91.70
2022-12-24T01:34:04.942Z,91.70
2022-12-24T01:36:31.817Z,91.70
2022-12-24T01:38:58.657Z,91.70
2022-12-24T01:41:45.055Z,91.70
2022-12-24T01:44:33.242Z,91.70
2022-12-24T01:47:21.128Z,91.70
2022-12-24T01:50:02.014Z,91.70
2022-12-24T01:52:35.695Z,91.70
2022-12-24T01:55:12.789Z,91.60
2022-12-24T01:58:14.068Z,91.60
2022-12-24T02:00:41.145Z,91.60
2022-12-24T02:03:08.222Z,91.60
2022-12-24T02:05:48.272Z,91.60
2022-12-24T02:08:16.395Z,91.60
2022-12-24T02:10:43.516Z,91.60
2022-12-24T02:13:10.921Z,91.60
2022-12-24T02:15:43.073Z,91.60
2022-12-24T02:18:14.945Z,91.60
2022-12-24T02:21:08.845Z,91.60
2022-12-24T02:24:06.108Z,91.60
2022-12-24T02:27:09.756Z,91.60
2022-12-24T02:30:00.191Z,91.60
2022-12-24T02:33:00.944Z,91.70
2022-12-24T02:35:35.713Z,91.70
2022-12-24T02:38:35.404Z,91.70
2022-12-24T02:41:11.587Z,91.80
2022-12-24T02:43:42.324Z,91.80
2022-12-24T02:46:31.836Z,91.80
2022-12-24T02:49:00.491Z,91.80
2022-12-24T02:51:27.238Z,91.80
2022-12-24T02:53:54.012Z,91.80
2022-12-24T02:56:40.365Z,91.80
2022-12-24T02:59:34.306Z,91.80
2022-12-24T03:02:37.695Z,91.80
2022-12-24T03:05:36.723Z,91.80
2022-12-24T03:08:50.012Z,91.80
2022-12-24T03:11:18.283Z,91.80
2022-12-24T03:13:46.457Z,91.80
2022-12-24T03:16:17.823Z,91.80
2022-12-24T03:18:48.153Z,91.80
2022-12-24T03:21:35.133Z,91.80
2022-12-24T03:24:02.119Z,91.80
2022-12-24T03:26:31.278Z,91.80
2022-12-24T03:28:57.996Z,91.80
2022-12-24T03:31:24.914Z,91.80
2022-12-24T03:33:52.016Z,91.80
2022-12-24T03:36:18.845Z,91.80
2022-12-24T03:38:45.635Z,91.80
2022-12-24T03:41:12.401Z,91.80
2022-12-24T03:43:39.220Z,91.80
2022-12-24T03:46:07.699Z,91.80
2022-12-24T03:48:35.645Z,91.80
2022-12-24T03:51:03.562Z,91.80
2022-12-24T03:53:30.362Z,91.80
2022-12-24T03:55:57.132Z,91.80
2022-12-24T03:58:23.921Z,91.80
2022-12-24T04:00:50.785Z,91.80
2022-12-24T04:03:17.677Z,91.70
2022-12-24T04:05:44.485Z,91.70
2022-12-24T04:08:11.207Z,91.70
2022-12-24T04:10:37.902Z,91.70
2022-12-24T04:13:04.612Z,91.70
2022-12-24T04:15:31.473Z,91.70
2022-12-24T04:17:58.191Z,91.70
2022-12-24T04:20:25.003Z,91.70
2022-12-24T04:22:53.286Z,91.70
2022-12-24T04:25:19.988Z,91.70
2022-12-24T04:27:46.706Z,91.70
2022-12-24T04:30:13.609Z,91.70
2022-12-24T04:32:40.292Z,91.70
2022-12-24T04:35:07.369Z,91.70
2022-12-24T04:37:34.698Z,91.70
2022-12-24T04:40:01.404Z,91.70
2022-12-24T04:42:28.195Z,91.70
2022-12-24T04:44:54.918Z,91.70
2022-12-24T04:47:21.673Z,91.70
2022-12-24T04:49:48.492Z,91.70
2022-12-24T04:52:15.188Z,91.70
2022-12-24T04:54:41.920Z,91.70
2022-12-24T04:57:08.634Z,91.70
2022-12-24T04:59:35.348Z,91.70
2022-12-24T05:02:02.344Z,91.70
2022-12-24T05:04:29.276Z,91.70
2022-12-24T05:06:55.958Z,91.70
2022-12-24T05:09:22.695Z,91.70
2022-12-24T05:11:49.469Z,91.70
2022-12-24T05:14:16.225Z,91.70
2022-12-24T05:16:43.996Z,91.70
2022-12-24T05:19:10.876Z,91.70
2022-12-24T05:21:37.716Z,91.70
2022-12-24T05:24:23.408Z,91.60
2022-12-24T05:26:53.638Z,91.60
2022-12-24T05:29:20.551Z,91.60
2022-12-24T05:31:47.845Z,91.60
2022-12-24T05:34:16.376Z,91.60
2022-12-24T05:36:44.117Z,91.60
2022-12-24T05:39:17.576Z,91.60
2022-12-24T05:41:44.726Z,91.60
2022-12-24T05:44:11.675Z,91.60
2022-12-24T05:46:38.563Z,91.60
2022-12-24T05:49:05.348Z,91.60
2022-12-24T05:51:32.111Z,91.60
2022-12-24T05:53:58.837Z,91.60
2022-12-24T05:56:26.324Z,91.60
2022-12-24T05:58:54.607Z,91.60
2022-12-24T06:01:22.670Z,91.60
2022-12-24T06:03:50.109Z,91.60
2022-12-24T06:06:20.924Z,91.60
2022-12-24T06:08:48.989Z,91.60
2022-12-24T06:11:17.840Z,91.60
2022-12-24T06:13:44.737Z,91.60
2022-12-24T06:16:17.374Z,91.50
2022-12-24T06:18:44.627Z,91.50
2022-12-24T06:21:12.245Z,91.50
2022-12-24T06:23:41.629Z,91.50
2022-12-24T06:26:11.651Z,91.50
2022-12-24T06:28:38.835Z,91.50
2022-12-24T06:31:10.749Z,91.50
2022-12-24T06:33:37.553Z,91.40
2022-12-24T06:36:17.236Z,91.40
2022-12-24T06:38:45.324Z,91.40
2022-12-24T06:41:12.117Z,91.40
2022-12-24T06:43:38.983Z,96.00
2022-12-24T06:46:06.023Z,91.40
2022-12-24T06:48:32.880Z,96.00
2022-12-24T06:51:02.458Z,96.00
2022-12-24T06:53:29.316Z,96.00
2022-12-24T06:56:04.455Z,96.00
2022-12-24T06:58:31.613Z,96.00
2022-12-24T07:00:58.461Z,96.00
2022-12-24T07:03:25.268Z,96.00
2022-12-24T07:05:52.086Z,96.00
2022-12-24T07:08:18.854Z,96.00
2022-12-24T07:10:52.203Z,96.00
2022-12-24T07:13:20.753Z,96.00
2022-12-24T07:15:47.512Z,95.90
2022-12-24T07:18:14.242Z,95.90
2022-12-24T07:20:42.932Z,95.90
2022-12-24T07:23:09.673Z,95.90
2022-12-24T07:25:36.390Z,95.90
2022-12-24T07:28:03.226Z,95.90
2022-12-24T07:30:29.967Z,95.90
2022-12-24T07:32:56.723Z,95.90
2022-12-24T07:35:23.449Z,95.90
2022-12-24T07:37:50.261Z,95.90
2022-12-24T07:40:17.024Z,95.90
2022-12-24T07:42:43.816Z,95.90
2022-12-24T07:45:11.039Z,95.90
2022-12-24T07:47:37.906Z,95.90
2022-12-24T07:50:05.834Z,95.90
2022-12-24T07:52:32.841Z,95.90
2022-12-24T07:54:59.717Z,95.90
2022-12-24T07:57:26.444Z,95.90
2022-12-24T07:59:53.213Z,95.90
2022-12-24T08:02:20.210Z,95.90
2022-12-24T08:04:47.119Z,95.90
2022-12-24T08:07:13.912Z,95.90
2022-12-24T08:09:40.748Z,96.00
2022-12-24T08:12:07.648Z,96.00
2022-12-24T08:14:34.977Z,96.00
2022-12-24T08:17:01.699Z,91.40
2022-12-24T08:19:28.461Z,91.40
2022-12-24T08:21:55.265Z,91.40
2022-12-24T08:24:22.024Z,91.50
2022-12-24T08:26:48.860Z,91.50
2022-12-24T08:29:15.621Z,91.50
2022-12-24T08:31:42.533Z,91.60
2022-12-24T08:34:10.941Z,91.60
2022-12-24T08:36:37.849Z,91.60
2022-12-24T08:39:05.356Z,91.60
2022-12-24T08:41:32.810Z,91.60
2022-12-24T08:43:59.779Z,91.60
2022-12-24T08:46:26.776Z,91.70
2022-12-24T08:48:53.685Z,91.70
2022-12-24T08:51:20.578Z,91.70
2022-12-24T08:53:47.310Z,91.70
2022-12-24T08:56:14.143Z,91.70
2022-12-24T08:58:41.502Z,91.70
2022-12-24T09:01:13.640Z,91.70
2022-12-24T09:03:40.903Z,91.70
2022-12-24T09:06:09.411Z,91.70
2022-12-24T09:08:36.450Z,91.70
2022-12-24T09:11:11.700Z,91.70
2022-12-24T09:13:39.094Z,91.70
2022-12-24T09:16:06.522Z,91.70
2022-12-24T09:18:34.981Z,91.70
2022-12-24T09:21:08.472Z,91.70
2022-12-24T09:23:39.668Z,91.70
2022-12-24T09:26:13.140Z,91.70
2022-12-24T09:28:40.136Z,91.70
2022-12-24T09:31:07.044Z,91.70
2022-12-24T09:33:36.509Z,91.70
2022-12-24T09:36:04.236Z,91.70
2022-12-24T09:38:31.174Z,91.70
2022-12-24T09:41:03.860Z,91.70
2022-12-24T09:43:37.241Z,91.70
2022-12-24T09:46:17.667Z,91.70
2022-12-24T09:48:49.373Z,91.70
2022-12-24T09:51:24.977Z,91.70
2022-12-24T09:54:00.802Z,91.70
2022-12-24T09:56:31.220Z,91.70
2022-12-24T09:59:01.468Z,91.60
2022-12-24T10:01:31.960Z,91.70
2022-12-24T10:04:02.873Z,91.30
2022-12-24T10:07:05.855Z,91.10
2022-12-24T10:09:51.190Z,90.40
2022-12-24T10:13:15.192Z,90.00
2022-12-24T10:15:56.738Z,89.40
2022-12-24T10:18:49.895Z,87.20
2022-12-24T10:21:46.777Z,88.10
2022-12-24T10:24:20.298Z,89.00
2022-12-24T10:26:56.965Z,88.30
2022-12-24T10:29:29.045Z,87.60
2022-12-24T10:32:08.043Z,86.10
2022-12-24T10:34:44.159Z,86.50
2022-12-24T10:37:24.746Z,87.30
2022-12-24T10:39:52.593Z,86.30
2022-12-24T10:42:21.616Z,85.50
2022-12-24T10:44:54.832Z,85.60
2022-12-24T10:47:23.712Z,83.80
2022-12-24T10:50:10.617Z,85.30
2022-12-24T10:52:43.036Z,85.80
2022-12-24T10:55:18.831Z,85.50
2022-12-24T10:57:56.323Z,86.00
2022-12-24T11:00:28.610Z,88.00
2022-12-24T11:03:28.477Z,88.80
2022-12-24T11:06:05.047Z,89.40
2022-12-24T11:08:32.417Z,74.60
2022-12-24T11:11:09.509Z,72.30
2022-12-24T11:13:44.060Z,62.60
2022-12-24T11:16:30.476Z,64.70
2022-12-24T11:18:59.943Z,58.00
2022-12-24T11:21:39.277Z,47.60
2022-12-24T11:24:12.791Z,50.10
2022-12-24T11:26:41.369Z,36.90
2022-12-24T11:29:26.544Z,33.30
2022-12-24T11:32:16.543Z,24.20
2022-12-24T11:34:43.977Z,17.50
2022-12-24T11:37:23.717Z,18.90
2022-12-24T11:39:59.741Z,10.30
2022-12-24T11:42:34.783Z,10.80
2022-12-24T11:45:04.972Z,4.30
2022-12-24T11:47:38.129Z,2.00
2022-12-24T11:50:30.391Z,1.00
2022-12-24T11:53:04.199Z,1.00
2022-12-24T11:55:57.529Z,1.00
2022-12-24T11:58:46.260Z,1.00
2022-12-24T12:01:17.453Z,1.00
2022-12-24T12:03:53.044Z,1.00
2022-12-24T12:06:38.605Z,1.00
2022-12-24T12:09:24.679Z,1.00
2022-12-24T12:12:12.360Z,5.20
2022-12-24T12:14:48.720Z,5.90
2022-12-24T12:17:50.279Z,1.00
2022-12-24T12:20:31.270Z,1.00
2022-12-24T12:23:04.128Z,1.00
2022-12-24T12:25:38.114Z,1.00
2022-12-24T12:28:13.319Z,1.00
2022-12-24T12:30:41.097Z,1.00
2022-12-24T12:33:13.595Z,1.00
2022-12-24T12:35:43.504Z,1.00
2022-12-24T12:38:23.152Z,1.00
2022-12-24T12:40:58.933Z,1.00
2022-12-24T12:43:43.937Z,1.00
2022-12-24T12:46:28.263Z,1.00
2022-12-24T12:49:11.355Z,1.00
2022-12-24T12:51:50.665Z,1.00
2022-12-24T12:54:25.724Z,1.00
2022-12-24T12:56:58.027Z,1.00
2022-12-24T12:59:54.977Z,1.00
2022-12-24T13:02:46.701Z,1.00
2022-12-24T13:05:40.950Z,1.00
2022-12-24T13:08:22.687Z,1.00
2022-12-24T13:11:21.469Z,1.00
2022-12-24T13:13:51.274Z,1.00
2022-12-24T13:16:23.888Z,1.00
2022-12-24T13:19:13.812Z,1.00
2022-12-24T13:21:46.079Z,1.00
2022-12-24T13:24:19.471Z,1.00
2022-12-24T13:27:05.082Z,1.00
2022-12-24T13:29:52.382Z,1.00
2022-12-24T13:32:22.280Z,1.00
2022-12-24T13:34:53.131Z,1.00
2022-12-24T13:37:32.207Z,1.00
2022-12-24T13:40:03.989Z,1.00
2022-12-24T13:42:58.447Z,1.00
2022-12-24T13:45:34.622Z,1.00
2022-12-24T13:48:02.929Z,1.00
2022-12-24T13:50:44.748Z,1.00
2022-12-24T13:53:30.388Z,1.00
2022-12-24T13:56:08.803Z,1.00
2022-12-24T13:58:38.705Z,1.00
2022-12-24T14:01:10.920Z,1.00
2022-12-24T14:03:47.833Z,1.00
2022-12-24T14:06:20.532Z,1.00
2022-12-24T14:08:49.784Z,1.00
2022-12-24T14:11:20.534Z,1.00
2022-12-24T14:13:47.354Z,5.10
2022-12-24T14:16:20.677Z,11.20
2022-12-24T14:18:57.782Z,21.60
2022-12-24T14:21:29.762Z,32.80
2022-12-24T14:23:59.910Z,37.30
2022-12-24T14:26:34.239Z,42.80
2022-12-24T14:29:21.259Z,49.90
2022-12-24T14:31:56.617Z,51.10
2022-12-24T14:34:23.915Z,59.40
2022-12-24T14:36:54.161Z,60.70
2022-12-24T14:39:33.349Z,63.00
2022-12-24T14:42:32.428Z,65.70
2022-12-24T14:45:29.578Z,67.60
2022-12-24T14:48:10.350Z,69.00
2022-12-24T14:50:42.826Z,73.00
2022-12-24T14:53:34.055Z,75.20
2022-12-24T14:56:13.331Z,78.20
2022-12-24T14:58:40.705Z,80.20
2022-12-24T15:01:19.615Z,83.60
2022-12-24T15:03:46.570Z,85.60
2022-12-24T15:06:14.778Z,86.30
2022-12-24T15:08:48.617Z,87.20
2022-12-24T15:11:19.347Z,87.90
2022-12-24T15:13:55.695Z,88.80
2022-12-24T15:16:32.837Z,89.30
2022-12-24T15:19:04.384Z,89.60
2022-12-24T15:21:42.560Z,89.80
2022-12-24T15:24:33.863Z,90.00
2022-12-24T15:27:06.542Z,90.10
2022-12-24T15:29:42.683Z,90.30
2022-12-24T15:32:15.406Z,90.50
2022-12-24T15:34:47.356Z,90.70
2022-12-24T15:37:21.559Z,90.60
2022-12-24T15:39:57.157Z,90.70
2022-12-24T15:42:26.826Z,90.60
2022-12-24T15:45:27.753Z,90.70
2022-12-24T15:48:01.850Z,90.70
2022-12-24T15:50:30.217Z,90.70
2022-12-24T15:53:19.472Z,90.70
2022-12-24T15:56:05.653Z,90.60
2022-12-24T15:58:44.494Z,90.60
2022-12-24T16:01:15.253Z,90.70
2022-12-24T16:03:59.154Z,90.90
2022-12-24T16:06:27.881Z,90.90
2022-12-24T16:08:56.507Z,91.00
2022-12-24T16:11:41.503Z,91.00
2022-12-24T16:14:20.215Z,91.00
2022-12-24T16:16:49.113Z,91.00
2022-12-24T16:19:24.923Z,91.00
2022-12-24T16:22:00.497Z,91.00
2022-12-24T16:24:31.623Z,91.10
2022-12-24T16:26:58.541Z,91.10
2022-12-24T16:29:27.552Z,91.10
2022-12-24T16:31:58.846Z,91.10
2022-12-24T16:34:32.436Z,91.10
2022-12-24T16:37:00.225Z,91.10
2022-12-24T16:39:32.728Z,91.10
2022-12-24T16:42:20.232Z,91.10
2022-12-24T16:44:47.826Z,91.10
2022-12-24T16:47:28.642Z,91.10
2022-12-24T16:49:57.170Z,91.10
2022-12-24T16:52:28.569Z,91.10
2022-12-24T16:54:56.847Z,91.20
2022-12-24T16:57:24.396Z,91.20
2022-12-24T16:59:52.403Z,91.20
2022-12-24T17:02:23.428Z,91.20
2022-12-24T17:04:50.330Z,91.20
2022-12-24T17:07:19.024Z,91.20
2022-12-24T17:09:45.904Z,91.30
2022-12-24T17:12:13.786Z,91.30
2022-12-24T17:14:42.177Z,91.30
2022-12-24T17:17:22.650Z,91.20
2022-12-24T17:19:49.418Z,91.30
2022-12-24T17:22:16.218Z,91.30
2022-12-24T17:24:43.055Z,91.30
2022-12-24T17:27:09.859Z,91.30
2022-12-24T17:29:36.706Z,91.30
2022-12-24T17:32:03.646Z,91.30
2022-12-24T17:34:30.447Z,91.30
2022-12-24T17:36:57.308Z,91.40
2022-12-24T17:39:27.846Z,91.40
2022-12-24T17:41:54.826Z,91.40
2022-12-24T17:44:22.019Z,91.40
2022-12-24T17:46:49.415Z,91.40
2022-12-24T17:49:16.414Z,91.30
2022-12-24T17:51:45.529Z,91.40
2022-12-24T17:54:13.139Z,91.40
2022-12-24T17:56:39.985Z,91.40
2022-12-24T17:59:06.736Z,91.40
2022-12-24T18:01:33.735Z,91.40
2022-12-24T18:04:02.254Z,91.40
2022-12-24T18:06:29.674Z,91.40
2022-12-24T18:08:56.993Z,91.40
2022-12-24T18:11:30.548Z,91.40
2022-12-24T18:13:57.704Z,91.40
2022-12-24T18:16:31.404Z,91.40
2022-12-24T18:18:58.880Z,91.50
2022-12-24T18:21:28.033Z,91.50
2022-12-24T18:23:57.440Z,91.50
2022-12-24T18:26:26.599Z,91.50
2022-12-24T18:28:54.796Z,91.50
2022-12-24T18:31:23.150Z,91.50
2022-12-24T18:33:51.875Z,91.50
2022-12-24T18:36:19.425Z,91.50
2022-12-24T18:38:46.521Z,91.50
2022-12-24T18:41:15.924Z,91.50
2022-12-24T18:43:42.707Z,91.50
2022-12-24T18:46:15.320Z,91.50
2022-12-24T18:48:42.315Z,91.40
2022-12-24T18:51:10.473Z,91.50
2022-12-24T18:53:38.148Z,91.50
2022-12-24T18:56:13.861Z,91.50
2022-12-24T18:58:42.268Z,91.50
2022-12-24T19:01:14.568Z,91.50
2022-12-24T19:03:41.552Z,91.40
2022-12-24T19:06:08.658Z,91.40
2022-12-24T19:11:23.170Z,91.40
2022-12-24T19:13:50.785Z,91.40
2022-12-24T19:16:18.698Z,91.40
2022-12-24T19:18:45.756Z,91.40
2022-12-24T19:21:14.209Z,91.40
2022-12-24T19:23:40.956Z,91.40
2022-12-24T19:26:07.678Z,91.40
2022-12-24T19:28:34.495Z,91.40
2022-12-24T19:31:06.936Z,91.40
2022-12-24T19:33:43.328Z,91.40
2022-12-24T19:36:13.030Z,91.40
2022-12-24T19:38:40.258Z,91.40
2022-12-24T19:41:08.956Z,91.40
2022-12-24T19:43:42.325Z,91.40
2022-12-24T19:46:10.957Z,91.30
2022-12-24T19:48:38.605Z,91.30
2022-12-24T19:51:07.840Z,91.30
2022-12-24T19:53:34.844Z,91.30
2022-12-24T19:56:02.169Z,91.30
2022-12-24T19:58:29.491Z,91.40
2022-12-24T20:00:56.238Z,91.30
2022-12-24T20:03:23.108Z,91.40
2022-12-24T20:05:49.997Z,91.40
2022-12-24T20:08:16.948Z,91.40
2022-12-24T20:10:44.508Z,91.40
2022-12-24T20:13:11.372Z,91.40
2022-12-24T20:15:42.825Z,91.40
2022-12-24T20:18:11.031Z,91.40
2022-12-24T20:20:38.659Z,91.40
2022-12-24T20:23:06.562Z,91.40
2022-12-24T20:25:39.708Z,91.40
2022-12-24T20:28:06.561Z,91.40
2022-12-24T20:30:36.390Z,91.30
2022-12-24T20:33:03.186Z,91.40
2022-12-24T20:35:29.978Z,91.40
2022-12-24T20:37:56.797Z,91.30
2022-12-24T20:40:23.626Z,91.40
2022-12-24T20:42:53.453Z,91.40
2022-12-24T20:45:20.196Z,91.40
2022-12-24T20:47:47.040Z,91.40
2022-12-24T20:50:13.940Z,91.40
2022-12-24T20:52:40.713Z,91.40
2022-12-24T20:55:07.666Z,91.40
2022-12-24T20:57:36.575Z,91.40
2022-12-24T21:00:04.663Z,91.40
2022-12-24T21:02:31.605Z,91.40
2022-12-24T21:05:02.328Z,91.40
2022-12-24T21:07:29.678Z,91.30
2022-12-24T21:09:56.461Z,91.40
2022-12-24T21:12:41.649Z,91.30
2022-12-24T21:15:08.592Z,91.30
2022-12-24T21:17:35.449Z,91.30
2022-12-24T21:20:03.294Z,91.30
2022-12-24T21:22:30.122Z,91.30
2022-12-24T21:24:56.860Z,96.00
2022-12-24T21:27:23.616Z,96.00
2022-12-24T21:29:50.388Z,96.00
2022-12-24T21:32:17.145Z,96.00
2022-12-24T21:34:44.015Z,96.00
2022-12-24T21:37:10.913Z,96.00
2022-12-24T21:39:37.728Z,96.00
2022-12-24T21:42:04.599Z,96.00
2022-12-24T21:44:31.289Z,96.00
2022-12-24T21:46:57.989Z,96.00
2022-12-24T21:49:43.581Z,96.00
2022-12-24T21:52:10.273Z,96.00
2022-12-24T21:54:37.082Z,96.00
2022-12-24T21:57:25.123Z,96.00
2022-12-24T22:00:17.520Z,96.00
2022-12-24T22:02:45.313Z,96.00
2022-12-24T22:05:12.407Z,96.00
2022-12-24T22:07:58.144Z,96.00
2022-12-24T22:10:43.745Z,96.00
2022-12-24T22:13:10.499Z,96.00
2022-12-24T22:15:46.638Z,96.00
2022-12-24T22:18:15.755Z,96.00
2022-12-24T22:20:43.553Z,96.00
2022-12-24T22:23:11.056Z,96.00
2022-12-24T22:25:38.076Z,96.00
2022-12-24T22:28:05.435Z,96.00
2022-12-24T22:30:32.666Z,96.00
2022-12-24T22:32:59.464Z,96.00
2022-12-24T22:35:26.236Z,96.00
2022-12-24T22:37:57.754Z,96.00
2022-12-24T22:40:27.991Z,96.00
2022-12-24T22:42:55.066Z,96.00
2022-12-24T22:45:22.690Z,96.00
2022-12-24T22:47:50.003Z,96.00
2022-12-24T22:50:17.149Z,96.00
2022-12-24T22:52:43.873Z,96.00
2022-12-24T22:55:10.772Z,96.00
2022-12-24T22:57:37.606Z,96.00
2022-12-24T23:00:11.718Z,96.00
2022-12-24T23:02:38.646Z,96.00
2022-12-24T23:05:05.757Z,96.00
2022-12-24T23:07:32.521Z,96.00
2022-12-24T23:09:59.758Z,96.00
2022-12-24T23:12:44.955Z,96.00
2022-12-24T23:15:11.975Z,96.00
2022-12-24T23:17:38.705Z,96.00
2022-12-24T23:20:06.506Z,96.00
2022-12-24T23:22:33.239Z,96.00
2022-12-24T23:25:00.043Z,96.00
2022-12-24T23:27:26.844Z,96.00
2022-12-24T23:29:53.603Z,95.90
2022-12-24T23:32:20.328Z,95.90
2022-12-24T23:34:47.035Z,95.90
2022-12-24T23:37:13.772Z,95.90
2022-12-24T23:39:40.521Z,95.90
2022-12-24T23:42:07.322Z,95.90
2022-12-24T23:44:34.066Z,95.90
2022-12-24T23:47:00.957Z,95.90
2022-12-24T23:49:27.764Z,95.90
2022-12-24T23:51:54.498Z,95.90
2022-12-24T23:54:21.250Z,95.90
2022-12-24T23:56:48.029Z,95.90
2022-12-24T23:59:14.746Z,95.90
